Time,TemperatureF,DewpointF,PressureIn,WindDirection,WindDirectionDegrees,WindSpeedMPH,WindSpeedGustMPH,Humidity,HourlyPrecipIn,Conditions,Clouds,dailyrainin,SoftwareType,DateUTC
2013-03-21 00:00:00,27.5,24.4,29.85,SW,214,0.0,1.0,88,0.00,,,0.00,Wunderground v.1.15,2013-03-21 04:00:00,
2013-03-21 00:05:00,27.5,24.7,29.85,SW,214,0.0,1.0,89,0.00,,,0.00,Wunderground v.1.15,2013-03-21 04:05:00,
2013-03-21 00:10:00,27.3,24.2,29.85,SW,214,0.0,1.0,88,0.00,,,0.00,Wunderground v.1.15,2013-03-21 04:10:00,
2013-03-21 00:15:00,27.2,24.1,29.85,SW,214,0.0,1.0,88,0.00,,,0.00,Wunderground v.1.15,2013-03-21 04:15:00,
2013-03-21 00:25:00,27.0,24.2,29.85,SW,214,0.0,1.0,89,0.00,,,0.00,Wunderground v.1.15,2013-03-21 04:25:00,
2013-03-21 00:30:00,26.9,24.1,29.85,SW,214,0.0,1.0,89,0.00,,,0.00,Wunderground v.1.15,2013-03-21 04:30:00,
2013-03-21 00:35:00,26.7,23.9,29.85,SW,214,0.0,1.0,89,0.00,,,0.00,Wunderground v.1.15,2013-03-21 04:35:00,
2013-03-21 00:40:00,26.7,23.9,29.85,SW,214,0.0,1.0,89,0.00,,,0.00,Wunderground v.1.15,2013-03-21 04:40:00,
2013-03-21 00:45:00,26.7,24.2,29.85,SW,214,0.0,1.0,90,0.00,,,0.00,Wunderground v.1.15,2013-03-21 04:45:00,
2013-03-21 00:50:00,26.8,24.3,29.85,SW,214,0.0,1.0,90,0.00,,,0.00,Wunderground v.1.15,2013-03-21 04:50:00,
2013-03-21 00:55:00,26.9,24.4,29.85,SW,214,0.0,1.0,90,0.00,,,0.00,Wunderground v.1.15,2013-03-21 04:55:00,
2013-03-21 01:05:00,27.2,24.7,29.85,SW,214,0.0,1.0,90,0.00,,,0.00,Wunderground v.1.15,2013-03-21 05:05:00,
2013-03-21 01:10:00,27.2,24.7,29.86,SW,214,0.0,1.0,90,0.00,,,0.00,Wunderground v.1.15,2013-03-21 05:10:00,
2013-03-21 01:15:00,27.5,25.2,29.86,SW,214,0.0,1.0,91,0.00,,,0.00,Wunderground v.1.15,2013-03-21 05:15:00,
2013-03-21 01:25:00,27.9,25.6,29.85,SW,214,0.0,1.0,91,0.00,,,0.00,Wunderground v.1.15,2013-03-21 05:25:00,
2013-03-21 01:35:00,28.3,26.0,29.85,SW,214,0.0,1.0,91,0.00,,,0.00,Wunderground v.1.15,2013-03-21 05:35:00,
2013-03-21 01:40:00,28.6,26.3,29.85,WNW,297,1.0,1.0,91,0.00,,,0.00,Wunderground v.1.15,2013-03-21 05:40:00,
2013-03-21 01:45:00,28.8,26.5,29.85,WNW,297,1.0,1.0,91,0.00,,,0.00,Wunderground v.1.15,2013-03-21 05:45:00,
2013-03-21 01:50:00,29.0,26.7,29.85,North,360,1.0,1.0,91,0.00,,,0.00,Wunderground v.1.15,2013-03-21 05:50:00,
2013-03-21 01:55:00,29.2,26.6,29.85,North,360,1.0,1.0,90,0.00,,,0.00,Wunderground v.1.15,2013-03-21 05:55:00,
2013-03-21 02:00:00,29.3,27.0,29.85,North,360,0.0,2.0,91,0.00,,,0.00,Wunderground v.1.15,2013-03-21 06:00:00,
2013-03-21 02:10:00,29.6,27.0,29.85,North,360,1.0,2.0,90,0.00,,,0.00,Wunderground v.1.15,2013-03-21 06:10:00,
2013-03-21 02:15:00,29.8,27.2,29.84,North,360,1.0,2.0,90,0.00,,,0.00,Wunderground v.1.15,2013-03-21 06:15:00,
2013-03-21 02:20:00,30.1,27.8,29.85,North,360,1.0,2.0,91,0.00,,,0.00,Wunderground v.1.15,2013-03-21 06:20:00,
2013-03-21 02:25:00,30.2,27.9,29.84,North,360,1.0,2.0,91,0.00,,,0.00,Wunderground v.1.15,2013-03-21 06:25:00,
2013-03-21 02:35:00,30.3,28.0,29.84,North,360,0.0,2.0,91,0.00,,,0.00,Wunderground v.1.15,2013-03-21 06:35:00,
2013-03-21 02:40:00,30.3,27.7,29.84,North,360,0.0,2.0,90,0.00,,,0.00,Wunderground v.1.15,2013-03-21 06:40:00,
2013-03-21 02:45:00,30.3,27.7,29.84,North,360,0.0,2.0,90,0.00,,,0.00,Wunderground v.1.15,2013-03-21 06:45:00,
2013-03-21 02:50:00,30.2,27.6,29.84,North,360,1.0,2.0,90,0.00,,,0.00,Wunderground v.1.15,2013-03-21 06:50:00,
2013-03-21 02:55:00,29.9,27.3,29.83,North,359,1.0,3.0,90,0.00,,,0.00,Wunderground v.1.15,2013-03-21 06:55:00,
2013-03-21 03:00:00,29.6,27.0,29.84,North,359,1.0,1.0,90,0.00,,,0.00,Wunderground v.1.15,2013-03-21 07:00:00,
2013-03-21 03:10:00,29.3,27.0,29.83,North,359,1.0,1.0,91,0.00,,,0.00,Wunderground v.1.15,2013-03-21 07:10:00,
2013-03-21 03:15:00,29.2,26.9,29.83,North,359,0.0,2.0,91,0.00,,,0.00,Wunderground v.1.15,2013-03-21 07:15:00,
2013-03-21 03:20:00,29.0,26.7,29.83,North,359,0.0,2.0,91,0.00,,,0.00,Wunderground v.1.15,2013-03-21 07:20:00,
2013-03-21 03:25:00,28.8,26.5,29.82,North,359,0.0,2.0,91,0.00,,,0.00,Wunderground v.1.15,2013-03-21 07:25:00,
2013-03-21 03:30:00,28.7,26.4,29.82,North,359,0.0,2.0,91,0.00,,,0.00,Wunderground v.1.15,2013-03-21 07:30:00,
2013-03-21 03:35:00,28.5,26.2,29.82,North,359,1.0,2.0,91,0.00,,,0.00,Wunderground v.1.15,2013-03-21 07:35:00,
2013-03-21 03:45:00,28.3,26.0,29.82,North,359,1.0,2.0,91,0.00,,,0.00,Wunderground v.1.15,2013-03-21 07:45:00,
2013-03-21 03:50:00,28.1,26.1,29.81,North,359,0.0,2.0,92,0.00,,,0.00,Wunderground v.1.15,2013-03-21 07:50:00,
2013-03-21 03:55:00,28.0,26.0,29.81,North,359,0.0,2.0,92,0.00,,,0.00,Wunderground v.1.15,2013-03-21 07:55:00,
2013-03-21 04:00:00,27.8,25.8,29.81,North,359,0.0,2.0,92,0.00,,,0.00,Wunderground v.1.15,2013-03-21 08:00:00,
2013-03-21 04:10:00,27.3,25.0,29.81,North,359,0.0,2.0,91,0.00,,,0.00,Wunderground v.1.15,2013-03-21 08:10:00,
2013-03-21 04:20:00,26.7,24.4,29.81,North,359,0.0,2.0,91,0.00,,,0.00,Wunderground v.1.15,2013-03-21 08:20:00,
2013-03-21 04:25:00,26.6,24.6,29.81,North,359,0.0,2.0,92,0.00,,,0.00,Wunderground v.1.15,2013-03-21 08:25:00,
2013-03-21 04:30:00,26.4,24.4,29.81,North,359,0.0,2.0,92,0.00,,,0.00,Wunderground v.1.15,2013-03-21 08:30:00,
2013-03-21 04:35:00,26.4,24.4,29.81,North,359,0.0,2.0,92,0.00,,,0.00,Wunderground v.1.15,2013-03-21 08:35:00,
2013-03-21 04:40:00,26.4,24.4,29.81,North,359,0.0,2.0,92,0.00,,,0.00,Wunderground v.1.15,2013-03-21 08:40:00,
2013-03-21 04:45:00,26.2,24.2,29.81,North,359,1.0,2.0,92,0.00,,,0.00,Wunderground v.1.15,2013-03-21 08:45:00,
2013-03-21 04:55:00,25.9,23.9,29.80,North,359,0.0,2.0,92,0.00,,,0.00,Wunderground v.1.15,2013-03-21 08:55:00,
2013-03-21 05:00:00,25.7,23.7,29.80,North,359,0.0,1.0,92,0.00,,,0.00,Wunderground v.1.15,2013-03-21 09:00:00,
2013-03-21 05:10:00,25.7,24.0,29.80,North,359,0.0,1.0,93,0.00,,,0.00,Wunderground v.1.15,2013-03-21 09:10:00,
2013-03-21 05:15:00,25.6,23.9,29.80,North,359,0.0,1.0,93,0.00,,,0.00,Wunderground v.1.15,2013-03-21 09:15:00,
2013-03-21 05:20:00,25.5,23.8,29.80,North,359,0.0,1.0,93,0.00,,,0.00,Wunderground v.1.15,2013-03-21 09:20:00,
2013-03-21 05:25:00,25.5,23.8,29.80,North,359,0.0,1.0,93,0.00,,,0.00,Wunderground v.1.15,2013-03-21 09:25:00,
2013-03-21 05:30:00,25.4,23.7,29.80,North,359,0.0,1.0,93,0.00,,,0.00,Wunderground v.1.15,2013-03-21 09:30:00,
2013-03-21 05:40:00,25.2,23.5,29.80,North,359,0.0,1.0,93,0.00,,,0.00,Wunderground v.1.15,2013-03-21 09:40:00,
2013-03-21 05:45:00,25.1,23.4,29.80,North,359,0.0,1.0,93,0.00,,,0.00,Wunderground v.1.15,2013-03-21 09:45:00,
2013-03-21 05:50:00,25.0,23.3,29.80,North,359,0.0,1.0,93,0.00,,,0.00,Wunderground v.1.15,2013-03-21 09:50:00,
2013-03-21 05:55:00,24.9,23.2,29.80,North,359,0.0,1.0,93,0.00,,,0.00,Wunderground v.1.15,2013-03-21 09:55:00,
2013-03-21 06:05:00,24.8,23.1,29.80,North,359,0.0,1.0,93,0.00,,,0.00,Wunderground v.1.15,2013-03-21 10:05:00,
2013-03-21 06:10:00,24.8,23.1,29.80,North,359,0.0,1.0,93,0.00,,,0.00,Wunderground v.1.15,2013-03-21 10:10:00,
2013-03-21 06:15:00,24.8,23.1,29.80,North,359,1.0,1.0,93,0.00,,,0.00,Wunderground v.1.15,2013-03-21 10:15:00,
2013-03-21 06:20:00,24.7,23.0,29.80,North,359,1.0,1.0,93,0.00,,,0.00,Wunderground v.1.15,2013-03-21 10:20:00,
2013-03-21 06:25:00,24.6,22.9,29.79,North,359,0.0,1.0,93,0.00,,,0.00,Wunderground v.1.15,2013-03-21 10:25:00,
2013-03-21 06:30:00,24.7,23.0,29.79,North,359,1.0,1.0,93,0.00,,,0.00,Wunderground v.1.15,2013-03-21 10:30:00,
2013-03-21 06:40:00,24.6,22.9,29.79,North,359,1.0,1.0,93,0.00,,,0.00,Wunderground v.1.15,2013-03-21 10:40:00,
2013-03-21 06:50:00,24.5,22.8,29.79,North,359,1.0,1.0,93,0.00,,,0.00,Wunderground v.1.15,2013-03-21 10:50:00,
2013-03-21 06:55:00,24.5,22.8,29.79,North,359,1.0,1.0,93,0.00,,,0.00,Wunderground v.1.15,2013-03-21 10:55:00,
2013-03-21 07:00:00,24.6,22.9,29.79,North,359,1.0,1.0,93,0.00,,,0.00,Wunderground v.1.15,2013-03-21 11:00:00,
2013-03-21 07:10:00,24.4,22.7,29.80,North,359,0.0,2.0,93,0.00,,,0.00,Wunderground v.1.15,2013-03-21 11:10:00,
2013-03-21 07:20:00,25.1,23.6,29.80,North,354,1.0,2.0,94,0.00,,,0.00,Wunderground v.1.15,2013-03-21 11:20:00,
2013-03-21 07:25:00,25.5,24.0,29.80,North,1,1.0,2.0,94,0.00,,,0.00,Wunderground v.1.15,2013-03-21 11:25:00,
2013-03-21 07:30:00,25.8,24.3,29.79,North,1,0.0,2.0,94,0.00,,,0.00,Wunderground v.1.15,2013-03-21 11:30:00,
2013-03-21 07:35:00,26.4,24.9,29.79,North,360,0.0,2.0,94,0.00,,,0.00,Wunderground v.1.15,2013-03-21 11:35:00,
2013-03-21 07:40:00,26.8,25.3,29.80,North,360,0.0,2.0,94,0.00,,,0.00,Wunderground v.1.15,2013-03-21 11:40:00,
2013-03-21 07:45:00,27.1,25.6,29.79,North,360,0.0,2.0,94,0.00,,,0.00,Wunderground v.1.15,2013-03-21 11:45:00,
2013-03-21 07:50:00,27.9,26.4,29.80,NNW,328,0.0,2.0,94,0.00,,,0.00,Wunderground v.1.15,2013-03-21 11:50:00,
2013-03-21 07:55:00,28.6,27.1,29.80,ENE,71,0.0,2.0,94,0.00,,,0.00,Wunderground v.1.15,2013-03-21 11:55:00,
2013-03-21 08:00:00,29.7,27.7,29.79,NNE,19,1.0,1.0,92,0.00,,,0.00,Wunderground v.1.15,2013-03-21 12:00:00,
2013-03-21 08:10:00,32.1,27.2,29.79,NNE,12,2.0,3.0,82,0.00,,,0.00,Wunderground v.1.15,2013-03-21 12:10:00,
2013-03-21 08:15:00,32.9,26.8,29.79,NNE,22,2.0,3.0,78,0.00,,,0.00,Wunderground v.1.15,2013-03-21 12:15:00,
2013-03-21 08:20:00,33.4,27.0,29.79,North,11,2.0,3.0,77,0.00,,,0.00,Wunderground v.1.15,2013-03-21 12:20:00,
2013-03-21 08:25:00,33.7,27.3,29.79,NE,49,1.0,3.0,77,0.00,,,0.00,Wunderground v.1.15,2013-03-21 12:25:00,
2013-03-21 08:30:00,34.1,27.3,29.79,ENE,60,1.0,3.0,76,0.00,,,0.00,Wunderground v.1.15,2013-03-21 12:30:00,
2013-03-21 08:35:00,34.4,27.6,29.79,NNE,27,1.0,3.0,76,0.00,,,0.00,Wunderground v.1.15,2013-03-21 12:35:00,
2013-03-21 08:40:00,34.8,28.0,29.79,NNE,15,2.0,2.0,76,0.00,,,0.00,Wunderground v.1.15,2013-03-21 12:40:00,
2013-03-21 08:50:00,35.8,28.3,29.79,NNE,19,3.0,3.0,74,0.00,,,0.00,Wunderground v.1.15,2013-03-21 12:50:00,
2013-03-21 08:55:00,36.1,27.9,29.79,NE,49,2.0,3.0,72,0.00,,,0.00,Wunderground v.1.15,2013-03-21 12:55:00,
2013-03-21 09:00:00,36.8,28.6,29.78,NNE,16,2.0,2.0,72,0.00,,,0.00,Wunderground v.1.15,2013-03-21 13:00:00,
2013-03-21 09:10:00,37.8,28.2,29.78,ENE,68,3.0,6.0,68,0.00,,,0.00,Wunderground v.1.15,2013-03-21 13:10:00,
2013-03-21 09:15:00,37.9,28.6,29.78,North,360,5.0,6.0,69,0.00,,,0.00,Wunderground v.1.15,2013-03-21 13:15:00,
2013-03-21 09:20:00,38.0,28.4,29.78,NE,40,4.0,4.0,68,0.00,,,0.00,Wunderground v.1.15,2013-03-21 13:20:00,
2013-03-21 09:30:00,38.2,27.5,29.77,ENE,67,3.0,6.0,65,0.00,,,0.00,Wunderground v.1.15,2013-03-21 13:30:00,
2013-03-21 09:35:00,38.2,27.1,29.78,NE,49,3.0,6.0,64,0.00,,,0.00,Wunderground v.1.15,2013-03-21 13:35:00,
2013-03-21 09:40:00,38.3,27.6,29.78,North,354,3.0,6.0,65,0.00,,,0.00,Wunderground v.1.15,2013-03-21 13:40:00,
2013-03-21 09:45:00,38.4,28.0,29.77,ENE,72,4.0,6.0,66,0.00,,,0.00,Wunderground v.1.15,2013-03-21 13:45:00,
2013-03-21 09:50:00,38.5,27.4,29.77,ENE,60,4.0,6.0,64,0.00,,,0.00,Wunderground v.1.15,2013-03-21 13:50:00,
2013-03-21 09:55:00,39.2,26.9,29.76,NNE,14,4.0,11.0,61,0.00,,,0.00,Wunderground v.1.15,2013-03-21 13:55:00,
2013-03-21 10:05:00,40.0,25.6,29.76,ENE,60,5.0,5.0,56,0.00,,,0.00,Wunderground v.1.15,2013-03-21 14:05:00,
2013-03-21 10:10:00,40.1,25.6,29.76,East,88,4.0,4.0,56,0.00,,,0.00,Wunderground v.1.15,2013-03-21 14:10:00,
2013-03-21 10:15:00,40.4,25.1,29.75,NW,326,4.0,8.0,54,0.00,,,0.00,Wunderground v.1.15,2013-03-21 14:15:00,
2013-03-21 10:20:00,40.5,25.6,29.75,NE,56,5.0,10.0,55,0.00,,,0.00,Wunderground v.1.15,2013-03-21 14:20:00,
2013-03-21 10:25:00,41.3,25.4,29.75,ENE,60,5.0,10.0,53,0.00,,,0.00,Wunderground v.1.15,2013-03-21 14:25:00,
2013-03-21 10:30:00,41.3,25.4,29.75,NNE,21,4.0,4.0,53,0.00,,,0.00,Wunderground v.1.15,2013-03-21 14:30:00,
2013-03-21 10:40:00,41.1,26.1,29.75,North,352,5.0,10.0,55,0.00,,,0.00,Wunderground v.1.15,2013-03-21 14:40:00,
2013-03-21 10:45:00,40.6,25.2,29.75,North,7,6.0,10.0,54,0.00,,,0.00,Wunderground v.1.15,2013-03-21 14:45:00,
2013-03-21 10:50:00,40.9,26.0,29.74,North,11,6.0,10.0,55,0.00,,,0.00,Wunderground v.1.15,2013-03-21 14:50:00,
2013-03-21 10:55:00,40.3,25.4,29.74,NE,36,6.0,10.0,55,0.00,,,0.00,Wunderground v.1.15,2013-03-21 14:55:00,
2013-03-21 11:00:00,40.8,26.3,29.73,NE,37,6.0,6.0,56,0.00,,,0.00,Wunderground v.1.15,2013-03-21 15:00:00,
2013-03-21 11:10:00,41.6,26.6,29.73,North,11,5.0,5.0,55,0.00,,,0.00,Wunderground v.1.15,2013-03-21 15:10:00,
2013-03-21 11:15:00,41.7,26.3,29.72,North,8,6.0,10.0,54,0.00,,,0.00,Wunderground v.1.15,2013-03-21 15:15:00,
2013-03-21 11:20:00,41.3,25.9,29.72,East,81,7.0,7.0,54,0.00,,,0.00,Wunderground v.1.15,2013-03-21 15:20:00,
2013-03-21 11:25:00,41.5,26.1,29.72,NNE,27,7.0,12.0,54,0.00,,,0.00,Wunderground v.1.15,2013-03-21 15:25:00,
2013-03-21 11:30:00,41.6,26.6,29.72,NNE,12,5.0,12.0,55,0.00,,,0.00,Wunderground v.1.15,2013-03-21 15:30:00,
2013-03-21 11:35:00,40.9,26.0,29.72,North,7,5.0,12.0,55,0.00,,,0.00,Wunderground v.1.15,2013-03-21 15:35:00,
2013-03-21 11:40:00,40.4,25.5,29.72,NNW,345,5.0,12.0,55,0.00,,,0.00,Wunderground v.1.15,2013-03-21 15:40:00,
2013-03-21 11:50:00,40.5,26.0,29.71,North,1,5.0,12.0,56,0.00,,,0.00,Wunderground v.1.15,2013-03-21 15:50:00,
2013-03-21 11:55:00,40.7,25.8,29.71,ESE,108,5.0,12.0,55,0.00,,,0.00,Wunderground v.1.15,2013-03-21 15:55:00,
2013-03-21 12:00:00,41.3,26.8,29.71,NNE,18,5.0,12.0,56,0.00,,,0.00,Wunderground v.1.15,2013-03-21 16:00:00,
2013-03-21 12:10:00,41.1,25.7,29.70,North,360,7.0,12.0,54,0.00,,,0.00,Wunderground v.1.15,2013-03-21 16:10:00,
2013-03-21 12:15:00,41.7,26.7,29.70,NNE,23,7.0,12.0,55,0.00,,,0.00,Wunderground v.1.15,2013-03-21 16:15:00,
2013-03-21 12:20:00,41.8,26.4,29.69,ENE,77,5.0,5.0,54,0.00,,,0.00,Wunderground v.1.15,2013-03-21 16:20:00,
2013-03-21 12:30:00,41.2,26.7,29.69,WNW,296,6.0,6.0,56,0.00,,,0.00,Wunderground v.1.15,2013-03-21 16:30:00,
2013-03-21 12:35:00,42.4,26.9,29.68,North,356,6.0,12.0,54,0.00,,,0.00,Wunderground v.1.15,2013-03-21 16:35:00,
2013-03-21 12:40:00,42.2,26.3,29.68,NNE,21,7.0,12.0,53,0.00,,,0.00,Wunderground v.1.15,2013-03-21 16:40:00,
2013-03-21 12:45:00,41.8,26.4,29.68,NW,313,7.0,12.0,54,0.00,,,0.00,Wunderground v.1.15,2013-03-21 16:45:00,
2013-03-21 12:50:00,41.6,26.2,29.68,North,1,6.0,6.0,54,0.00,,,0.00,Wunderground v.1.15,2013-03-21 16:50:00,
2013-03-21 12:55:00,41.8,26.4,29.68,North,9,5.0,12.0,54,0.00,,,0.00,Wunderground v.1.15,2013-03-21 16:55:00,
2013-03-21 13:05:00,41.1,27.0,29.68,East,84,5.0,14.0,57,0.00,,,0.00,Wunderground v.1.15,2013-03-21 17:05:00,
2013-03-21 13:10:00,41.4,26.4,29.67,NNE,18,5.0,5.0,55,0.00,,,0.00,Wunderground v.1.15,2013-03-21 17:10:00,
2013-03-21 13:15:00,41.7,26.7,29.67,NNE,16,5.0,14.0,55,0.00,,,0.00,Wunderground v.1.15,2013-03-21 17:15:00,
2013-03-21 13:20:00,41.5,27.0,29.67,NE,40,5.0,5.0,56,0.00,,,0.00,Wunderground v.1.15,2013-03-21 17:20:00,
2013-03-21 13:25:00,41.4,26.9,29.67,ENE,59,4.0,14.0,56,0.00,,,0.00,Wunderground v.1.15,2013-03-21 17:25:00,
2013-03-21 13:30:00,40.8,26.3,29.67,ENE,70,4.0,4.0,56,0.00,,,0.00,Wunderground v.1.15,2013-03-21 17:30:00,
2013-03-21 13:40:00,39.5,25.5,29.67,West,261,5.0,5.0,57,0.00,,,0.00,Wunderground v.1.15,2013-03-21 17:40:00,
2013-03-21 13:50:00,40.2,26.6,29.66,NE,43,5.0,5.0,58,0.00,,,0.00,Wunderground v.1.15,2013-03-21 17:50:00,
2013-03-21 13:55:00,40.4,26.4,29.66,North,11,5.0,14.0,57,0.00,,,0.00,Wunderground v.1.15,2013-03-21 17:55:00,
2013-03-21 14:00:00,39.9,25.9,29.66,North,360,6.0,6.0,57,0.00,,,0.00,Wunderground v.1.15,2013-03-21 18:00:00,
2013-03-21 14:10:00,39.4,25.8,29.66,NNE,19,5.0,13.0,58,0.00,,,0.00,Wunderground v.1.15,2013-03-21 18:10:00,
2013-03-21 14:20:00,39.0,25.9,29.65,ENE,63,6.0,6.0,59,0.00,,,0.00,Wunderground v.1.15,2013-03-21 18:20:00,
2013-03-21 14:25:00,38.6,25.9,29.65,NE,37,6.0,13.0,60,0.00,,,0.00,Wunderground v.1.15,2013-03-21 18:25:00,
2013-03-21 14:30:00,38.3,26.8,29.65,NNE,31,6.0,13.0,63,0.00,,,0.00,Wunderground v.1.15,2013-03-21 18:30:00,
2013-03-21 14:35:00,38.1,26.6,29.65,East,85,7.0,13.0,63,0.00,,,0.00,Wunderground v.1.15,2013-03-21 18:35:00,
2013-03-21 14:40:00,37.9,26.4,29.64,NNE,12,7.0,7.0,63,0.00,,,0.00,Wunderground v.1.15,2013-03-21 18:40:00,
2013-03-21 14:45:00,38.0,27.3,29.64,North,7,7.0,13.0,65,0.00,,,0.00,Wunderground v.1.15,2013-03-21 18:45:00,
2013-03-21 14:50:00,38.4,26.9,29.64,NE,52,6.0,13.0,63,0.00,,,0.00,Wunderground v.1.15,2013-03-21 18:50:00,
2013-03-21 14:55:00,37.6,26.5,29.64,North,355,6.0,13.0,64,0.00,,,0.00,Wunderground v.1.15,2013-03-21 18:55:00,
2013-03-21 15:05:00,36.9,26.6,29.64,North,354,6.0,14.0,66,0.00,,,0.00,Wunderground v.1.15,2013-03-21 19:05:00,
2013-03-21 15:10:00,36.9,27.0,29.63,ESE,105,6.0,6.0,67,0.00,,,0.00,Wunderground v.1.15,2013-03-21 19:10:00,
2013-03-21 15:15:00,37.0,27.1,29.63,NNW,339,6.0,14.0,67,0.00,,,0.00,Wunderground v.1.15,2013-03-21 19:15:00,
2013-03-21 15:20:00,37.3,27.3,29.63,NE,43,6.0,6.0,67,0.00,,,0.00,Wunderground v.1.15,2013-03-21 19:20:00,
2013-03-21 15:25:00,37.5,27.2,29.63,NNE,33,6.0,8.0,66,0.00,,,0.00,Wunderground v.1.15,2013-03-21 19:25:00,
2013-03-21 15:30:00,37.3,27.7,29.62,ENE,58,6.0,6.0,68,0.00,,,0.00,Wunderground v.1.15,2013-03-21 19:30:00,
2013-03-21 15:35:00,37.1,27.5,29.62,NNW,347,5.0,14.0,68,0.00,,,0.00,Wunderground v.1.15,2013-03-21 19:35:00,
2013-03-21 15:45:00,36.4,27.2,29.62,North,11,6.0,6.0,69,0.00,,,0.00,Wunderground v.1.15,2013-03-21 19:45:00,
2013-03-21 15:50:00,36.6,27.7,29.61,NNE,14,6.0,6.0,70,0.00,,,0.00,Wunderground v.1.15,2013-03-21 19:50:00,
2013-03-21 15:55:00,36.8,27.9,29.62,North,4,5.0,9.0,70,0.00,,,0.00,Wunderground v.1.15,2013-03-21 19:55:00,
2013-03-21 16:00:00,36.9,28.0,29.61,NE,39,5.0,14.0,70,0.00,,,0.00,Wunderground v.1.15,2013-03-21 20:00:00,
2013-03-21 16:10:00,36.1,27.3,29.61,North,360,7.0,7.0,70,0.00,,,0.00,Wunderground v.1.15,2013-03-21 20:10:00,
2013-03-21 16:15:00,36.3,27.4,29.60,NNE,25,7.0,8.0,70,0.00,,,0.00,Wunderground v.1.15,2013-03-21 20:15:00,
2013-03-21 16:20:00,36.5,28.0,29.60,North,6,7.0,15.0,71,0.00,,,0.00,Wunderground v.1.15,2013-03-21 20:20:00,
2013-03-21 16:25:00,36.3,27.8,29.60,NE,45,8.0,15.0,71,0.00,,,0.00,Wunderground v.1.15,2013-03-21 20:25:00,
2013-03-21 16:30:00,36.3,27.4,29.60,NNE,32,7.0,7.0,70,0.00,,,0.00,Wunderground v.1.15,2013-03-21 20:30:00,
2013-03-21 16:35:00,35.9,27.4,29.60,NW,314,6.0,14.0,71,0.00,,,0.00,Wunderground v.1.15,2013-03-21 20:35:00,
2013-03-21 16:45:00,36.4,27.9,29.59,NNE,32,6.0,14.0,71,0.00,,,0.00,Wunderground v.1.15,2013-03-21 20:45:00,
2013-03-21 16:50:00,35.7,27.6,29.60,NE,40,6.0,14.0,72,0.00,,,0.00,Wunderground v.1.15,2013-03-21 20:50:00,
2013-03-21 16:55:00,35.5,27.7,29.60,NNE,16,6.0,14.0,73,0.00,,,0.00,Wunderground v.1.15,2013-03-21 20:55:00,
2013-03-21 17:00:00,35.5,27.7,29.60,NNE,25,5.0,18.0,73,0.00,,,0.00,Wunderground v.1.15,2013-03-21 21:00:00,
2013-03-21 17:10:00,35.3,27.5,29.60,NE,50,5.0,18.0,73,0.00,,,0.00,Wunderground v.1.15,2013-03-21 21:10:00,
2013-03-21 17:20:00,35.3,27.8,29.60,NE,37,5.0,18.0,74,0.00,,,0.00,Wunderground v.1.15,2013-03-21 21:20:00,
2013-03-21 17:25:00,35.3,28.2,29.60,North,360,5.0,18.0,75,0.00,,,0.00,Wunderground v.1.15,2013-03-21 21:25:00,
2013-03-21 17:30:00,35.2,28.1,29.60,North,1,5.0,5.0,75,0.00,,,0.00,Wunderground v.1.15,2013-03-21 21:30:00,
2013-03-21 17:35:00,35.2,28.1,29.60,NE,34,6.0,6.0,75,0.00,,,0.00,Wunderground v.1.15,2013-03-21 21:35:00,
2013-03-21 17:40:00,35.1,28.0,29.60,NNE,16,6.0,18.0,75,0.00,,,0.00,Wunderground v.1.15,2013-03-21 21:40:00,
2013-03-21 17:45:00,35.0,28.2,29.60,NE,38,6.0,18.0,76,0.00,,,0.00,Wunderground v.1.15,2013-03-21 21:45:00,
2013-03-21 17:55:00,35.0,27.9,29.61,NNE,19,5.0,18.0,75,0.00,,,0.00,Wunderground v.1.15,2013-03-21 21:55:00,
2013-03-21 18:00:00,35.0,27.9,29.61,NNW,340,4.0,14.0,75,0.00,,,0.00,Wunderground v.1.15,2013-03-21 22:00:00,
2013-03-21 18:10:00,34.7,27.9,29.61,North,356,5.0,14.0,76,0.00,,,0.00,Wunderground v.1.15,2013-03-21 22:10:00,
2013-03-21 18:20:00,34.3,28.2,29.61,NNW,348,6.0,6.0,78,0.00,,,0.00,Wunderground v.1.15,2013-03-21 22:20:00,
2013-03-21 18:25:00,34.1,28.0,29.61,NNE,27,6.0,9.0,78,0.00,,,0.00,Wunderground v.1.15,2013-03-21 22:25:00,
2013-03-21 18:30:00,34.0,27.9,29.62,North,358,5.0,14.0,78,0.00,,,0.00,Wunderground v.1.15,2013-03-21 22:30:00,
2013-03-21 18:40:00,33.6,28.1,29.62,North,6,5.0,5.0,80,0.00,,,0.00,Wunderground v.1.15,2013-03-21 22:40:00,
2013-03-21 18:45:00,33.5,28.3,29.62,North,4,5.0,14.0,81,0.00,,,0.00,Wunderground v.1.15,2013-03-21 22:45:00,
2013-03-21 18:50:00,33.4,28.2,29.62,North,4,5.0,14.0,81,0.00,,,0.00,Wunderground v.1.15,2013-03-21 22:50:00,
2013-03-21 18:55:00,33.2,28.3,29.63,NW,310,5.0,14.0,82,0.00,,,0.00,Wunderground v.1.15,2013-03-21 22:55:00,
2013-03-21 19:00:00,32.9,28.3,29.62,North,11,6.0,13.0,83,0.00,,,0.00,Wunderground v.1.15,2013-03-21 23:00:00,
2013-03-21 19:10:00,32.4,28.4,29.63,NNW,328,6.0,6.0,85,0.00,,,0.00,Wunderground v.1.15,2013-03-21 23:10:00,
2013-03-21 19:15:00,32.2,28.5,29.63,North,356,6.0,13.0,86,0.00,,,0.00,Wunderground v.1.15,2013-03-21 23:15:00,
2013-03-21 19:20:00,32.1,28.7,29.62,NNW,338,5.0,5.0,87,0.00,,,0.00,Wunderground v.1.15,2013-03-21 23:20:00,
2013-03-21 19:25:00,31.9,28.8,29.62,NNE,27,5.0,13.0,88,0.00,,,0.00,Wunderground v.1.15,2013-03-21 23:25:00,
2013-03-21 19:30:00,31.7,28.8,29.62,NNW,340,5.0,13.0,89,0.00,,,0.00,Wunderground v.1.15,2013-03-21 23:30:00,
2013-03-21 19:35:00,31.7,29.1,29.63,NNW,335,5.0,13.0,90,0.00,,,0.00,Wunderground v.1.15,2013-03-21 23:35:00,
2013-03-21 19:45:00,31.6,29.3,29.63,NNW,336,5.0,13.0,91,0.00,,,0.00,Wunderground v.1.15,2013-03-21 23:45:00,
2013-03-21 19:50:00,31.5,29.2,29.63,North,359,5.0,5.0,91,0.00,,,0.00,Wunderground v.1.15,2013-03-21 23:50:00,
2013-03-21 19:55:00,31.5,29.2,29.63,NNW,342,5.0,13.0,91,0.00,,,0.00,Wunderground v.1.15,2013-03-21 23:55:00,
2013-03-21 20:00:00,31.4,29.3,29.64,NW,318,4.0,4.0,92,0.00,,,0.00,Wunderground v.1.15,2013-03-22 00:00:00,
2013-03-21 20:10:00,31.1,29.0,29.63,North,1,5.0,11.0,92,0.00,,,0.00,Wunderground v.1.15,2013-03-22 00:10:00,
2013-03-21 20:15:00,31.0,28.9,29.64,NNW,340,5.0,11.0,92,0.00,,,0.00,Wunderground v.1.15,2013-03-22 00:15:00,
2013-03-21 20:20:00,31.0,28.9,29.63,NNW,329,5.0,11.0,92,0.00,,,0.00,Wunderground v.1.15,2013-03-22 00:20:00,
2013-03-21 20:25:00,30.9,28.9,29.63,North,350,6.0,11.0,92,0.00,,,0.00,Wunderground v.1.15,2013-03-22 00:25:00,
2013-03-21 20:30:00,30.8,29.0,29.63,North,359,6.0,6.0,93,0.00,,,0.00,Wunderground v.1.15,2013-03-22 00:30:00,
2013-03-21 20:35:00,30.8,29.0,29.63,North,7,5.0,7.0,93,0.00,,,0.00,Wunderground v.1.15,2013-03-22 00:35:00,
2013-03-21 20:40:00,30.7,28.9,29.63,NNE,15,6.0,11.0,93,0.00,,,0.00,Wunderground v.1.15,2013-03-22 00:40:00,
2013-03-21 20:45:00,30.7,28.9,29.63,North,349,6.0,11.0,93,0.00,,,0.00,Wunderground v.1.15,2013-03-22 00:45:00,
2013-03-21 20:55:00,30.8,29.0,29.63,North,359,5.0,11.0,93,0.00,,,0.00,Wunderground v.1.15,2013-03-22 00:55:00,
2013-03-21 21:00:00,30.8,29.0,29.63,NNE,15,5.0,14.0,93,0.00,,,0.00,Wunderground v.1.15,2013-03-22 01:00:00,
2013-03-21 21:10:00,30.8,29.3,29.63,NW,323,5.0,14.0,94,0.00,,,0.00,Wunderground v.1.15,2013-03-22 01:10:00,
2013-03-21 21:15:00,30.8,29.3,29.63,North,354,5.0,14.0,94,0.00,,,0.00,Wunderground v.1.15,2013-03-22 01:15:00,
2013-03-21 21:20:00,30.9,29.4,29.63,NE,39,5.0,14.0,94,0.00,,,0.00,Wunderground v.1.15,2013-03-22 01:20:00,
2013-03-21 21:25:00,31.0,29.5,29.63,North,359,5.0,14.0,94,0.00,,,0.00,Wunderground v.1.15,2013-03-22 01:25:00,
2013-03-21 21:35:00,31.1,29.6,29.62,North,360,5.0,14.0,94,0.00,,,0.00,Wunderground v.1.15,2013-03-22 01:35:00,
2013-03-21 21:40:00,31.2,29.7,29.62,WNW,288,4.0,4.0,94,0.00,,,0.00,Wunderground v.1.15,2013-03-22 01:40:00,
2013-03-21 21:45:00,31.2,29.7,29.62,NNE,30,4.0,14.0,94,0.00,,,0.00,Wunderground v.1.15,2013-03-22 01:45:00,
2013-03-21 21:50:00,31.2,29.7,29.62,North,1,5.0,5.0,94,0.00,,,0.00,Wunderground v.1.15,2013-03-22 01:50:00,
2013-03-21 22:00:00,31.3,29.8,29.62,North,351,4.0,4.0,94,0.00,,,0.00,Wunderground v.1.15,2013-03-22 02:00:00,
2013-03-21 22:10:00,31.4,29.9,29.62,NNW,327,5.0,5.0,94,0.00,,,0.00,Wunderground v.1.15,2013-03-22 02:10:00,
2013-03-21 22:15:00,31.3,29.8,29.62,North,358,4.0,13.0,94,0.00,,,0.00,Wunderground v.1.15,2013-03-22 02:15:00,
2013-03-21 22:25:00,31.3,29.8,29.62,NNE,14,5.0,13.0,94,0.00,,,0.00,Wunderground v.1.15,2013-03-22 02:25:00,
2013-03-21 22:30:00,31.3,29.8,29.62,North,1,4.0,4.0,94,0.00,,,0.00,Wunderground v.1.15,2013-03-22 02:30:00,
2013-03-21 22:40:00,31.2,29.7,29.62,NW,307,4.0,4.0,94,0.00,,,0.00,Wunderground v.1.15,2013-03-22 02:40:00,
2013-03-21 22:45:00,31.2,29.7,29.62,NW,314,4.0,8.0,94,0.00,,,0.00,Wunderground v.1.15,2013-03-22 02:45:00,
2013-03-21 22:50:00,31.2,29.7,29.62,NNW,342,4.0,4.0,94,0.00,,,0.00,Wunderground v.1.15,2013-03-22 02:50:00,
2013-03-21 22:55:00,31.2,29.7,29.62,WNW,291,4.0,6.0,94,0.00,,,0.00,Wunderground v.1.15,2013-03-22 02:55:00,
2013-03-21 23:00:00,31.1,29.6,29.62,NNW,330,4.0,4.0,94,0.00,,,0.00,Wunderground v.1.15,2013-03-22 03:00:00,
2013-03-21 23:10:00,31.0,29.5,29.62,NW,306,4.0,10.0,94,0.00,,,0.00,Wunderground v.1.15,2013-03-22 03:10:00,
2013-03-21 23:15:00,31.0,29.5,29.62,NW,323,4.0,10.0,94,0.00,,,0.00,Wunderground v.1.15,2013-03-22 03:15:00,
2013-03-21 23:20:00,31.0,29.5,29.62,North,350,4.0,10.0,94,0.00,,,0.00,Wunderground v.1.15,2013-03-22 03:20:00,
2013-03-21 23:25:00,30.9,29.4,29.62,NW,323,5.0,10.0,94,0.00,,,0.00,Wunderground v.1.15,2013-03-22 03:25:00,
2013-03-21 23:30:00,30.9,29.4,29.62,NW,311,4.0,4.0,94,0.00,,,0.00,Wunderground v.1.15,2013-03-22 03:30:00,
2013-03-21 23:35:00,31.0,29.5,29.62,NW,318,4.0,10.0,94,0.00,,,0.00,Wunderground v.1.15,2013-03-22 03:35:00,
2013-03-21 23:45:00,31.0,29.5,29.62,North,360,4.0,10.0,94,0.00,,,0.00,Wunderground v.1.15,2013-03-22 03:45:00,
2013-03-21 23:50:00,31.0,29.5,29.62,NW,322,4.0,4.0,94,0.00,,,0.00,Wunderground v.1.15,2013-03-22 03:50:00,
2013-03-21 23:55:00,31.0,29.5,29.62,NNE,13,4.0,10.0,94,0.00,,,0.00,Wunderground v.1.15,2013-03-22 03:55:00,